RYR10AD LZIB-EBCI
Flight info
| Callsign | RYR10AD |
|---|---|
| Flight time | 1h 35m |
| Altitude | 38000 |
| Route | TOVKA DCT STO DCT MASUR DCT DEXIT DCT EXITI DCT TEKTU DCT TESGA DCT UMUPU T880 BATTY |
| Aircraft | B738/M-SDE2E3FGHIRWXY/LB1 |
Departure
| Time | 2026-05-06 06:27 |
|---|---|
| Airport | M. R. Štefánik Airport (LZIB) |
Arrival
| Time | 2026-05-06 08:02 |
|---|---|
| Airport | Brussels South Charleroi Airport (EBCI) |
| Time | Latitude | Longitude | Altitude | Speed | Heading |
|---|---|---|---|---|---|
| 2026-05-06 06:12 | 48.16915 | 17.20090 | 442 ft | 0 kts | 314° |
| 2026-05-06 06:18 | 48.16912 | 17.20095 | 442 ft | 2 kts | 314° |
| 2026-05-06 06:18 | 48.16898 | 17.20116 | 431 ft | 3 kts | 314° |
| 2026-05-06 06:18 | 48.16887 | 17.20134 | 442 ft | 3 kts | 305° |
| 2026-05-06 06:18 | 48.16880 | 17.20157 | 442 ft | 3 kts | 259° |
| 2026-05-06 06:19 | 48.16888 | 17.20178 | 434 ft | 3 kts | 217° |
| 2026-05-06 06:19 | 48.16904 | 17.20196 | 442 ft | 3 kts | 219° |
| 2026-05-06 06:19 | 48.16910 | 17.20203 | 442 ft | 0 kts | 224° |
| 2026-05-06 06:22 | 48.16881 | 17.20162 | 433 ft | 8 kts | 221° |
| 2026-05-06 06:22 | 48.16837 | 17.20197 | 433 ft | 8 kts | 134° |
| 2026-05-06 06:22 | 48.16796 | 17.20249 | 432 ft | 8 kts | 136° |
| 2026-05-06 06:23 | 48.16763 | 17.20301 | 442 ft | 13 kts | 134° |
| 2026-05-06 06:23 | 48.16689 | 17.20368 | 436 ft | 9 kts | 189° |
| 2026-05-06 06:23 | 48.16620 | 17.20275 | 432 ft | 17 kts | 221° |
| 2026-05-06 06:23 | 48.16532 | 17.20158 | 435 ft | 17 kts | 221° |
| 2026-05-06 06:24 | 48.16448 | 17.20046 | 443 ft | 16 kts | 221° |
| 2026-05-06 06:24 | 48.16363 | 17.19932 | 443 ft | 18 kts | 221° |
| 2026-05-06 06:24 | 48.16269 | 17.19806 | 432 ft | 19 kts | 221° |
| 2026-05-06 06:24 | 48.16159 | 17.19851 | 431 ft | 15 kts | 131° |
| 2026-05-06 06:25 | 48.16116 | 17.19970 | 444 ft | 12 kts | 90° |
| 2026-05-06 06:25 | 48.16148 | 17.20037 | 443 ft | 0 kts | 39° |
| 2026-05-06 06:27 | 48.16150 | 17.20040 | 443 ft | 7 kts | 39° |
| 2026-05-06 06:27 | 48.16437 | 17.20450 | 442 ft | 105 kts | 44° |
| 2026-05-06 06:27 | 48.17140 | 17.21455 | 686 ft | 158 kts | 46° |
| 2026-05-06 06:27 | 48.18029 | 17.22472 | 1607 ft | 171 kts | 28° |
| 2026-05-06 06:28 | 48.19042 | 17.23611 | 2330 ft | 193 kts | 51° |
| 2026-05-06 06:28 | 48.19955 | 17.25153 | 3059 ft | 204 kts | 43° |
| 2026-05-06 06:28 | 48.20979 | 17.26746 | 3563 ft | 222 kts | 46° |
| 2026-05-06 06:28 | 48.22064 | 17.28490 | 4207 ft | 231 kts | 40° |
| 2026-05-06 06:29 | 48.23501 | 17.29520 | 4919 ft | 233 kts | 4° |
| 2026-05-06 06:29 | 48.25090 | 17.29093 | 5760 ft | 233 kts | 330° |
| 2026-05-06 06:29 | 48.26282 | 17.27444 | 6411 ft | 241 kts | 298° |
| 2026-05-06 06:29 | 48.26745 | 17.25047 | 7095 ft | 247 kts | 268° |
| 2026-05-06 06:30 | 48.26304 | 17.22563 | 7931 ft | 250 kts | 241° |
| 2026-05-06 06:30 | 48.25344 | 17.20364 | 8777 ft | 256 kts | 234° |
| 2026-05-06 06:30 | 48.24287 | 17.18194 | 9604 ft | 259 kts | 234° |
| 2026-05-06 06:30 | 48.23234 | 17.16007 | 10529 ft | 259 kts | 234° |
| 2026-05-06 06:31 | 48.22195 | 17.13804 | 11423 ft | 258 kts | 237° |
| 2026-05-06 06:31 | 48.21562 | 17.11294 | 12225 ft | 262 kts | 263° |
| 2026-05-06 06:31 | 48.21735 | 17.08560 | 13054 ft | 268 kts | 285° |
| 2026-05-06 06:31 | 48.22497 | 17.05975 | 13803 ft | 274 kts | 294° |
| 2026-05-06 06:32 | 48.23376 | 17.03410 | 14552 ft | 278 kts | 294° |
| 2026-05-06 06:32 | 48.24263 | 17.00818 | 15313 ft | 281 kts | 294° |
| 2026-05-06 06:32 | 48.25146 | 16.98194 | 16046 ft | 283 kts | 294° |
| 2026-05-06 06:32 | 48.26029 | 16.95536 | 16757 ft | 286 kts | 294° |
| 2026-05-06 06:33 | 48.26912 | 16.92848 | 17473 ft | 288 kts | 291° |
| 2026-05-06 06:33 | 48.27574 | 16.90014 | 18166 ft | 288 kts | 283° |
| 2026-05-06 06:33 | 48.28067 | 16.87081 | 18845 ft | 291 kts | 281° |
| 2026-05-06 06:33 | 48.28524 | 16.84118 | 19497 ft | 294 kts | 280° |
| 2026-05-06 06:34 | 48.28987 | 16.81109 | 20147 ft | 296 kts | 281° |
| 2026-05-06 06:34 | 48.29458 | 16.78088 | 20798 ft | 298 kts | 280° |
| 2026-05-06 06:34 | 48.29940 | 16.75049 | 21416 ft | 301 kts | 281° |
| 2026-05-06 06:34 | 48.30430 | 16.71991 | 22022 ft | 303 kts | 281° |
| 2026-05-06 06:35 | 48.30928 | 16.68904 | 22616 ft | 305 kts | 280° |
| 2026-05-06 06:35 | 48.31432 | 16.65798 | 23188 ft | 307 kts | 280° |
| 2026-05-06 06:35 | 48.31941 | 16.62667 | 23754 ft | 310 kts | 280° |
| 2026-05-06 06:35 | 48.32454 | 16.59518 | 24314 ft | 311 kts | 280° |
| 2026-05-06 06:36 | 48.32971 | 16.56347 | 24833 ft | 314 kts | 280° |
| 2026-05-06 06:36 | 48.33493 | 16.53134 | 25334 ft | 317 kts | 280° |
| 2026-05-06 06:36 | 48.34017 | 16.49913 | 25860 ft | 318 kts | 280° |
| 2026-05-06 06:36 | 48.34542 | 16.46671 | 26400 ft | 318 kts | 280° |
| 2026-05-06 06:37 | 48.35064 | 16.43453 | 27002 ft | 316 kts | 280° |
| 2026-05-06 06:37 | 48.35581 | 16.40257 | 27593 ft | 314 kts | 280° |
| 2026-05-06 06:37 | 48.36093 | 16.37080 | 28130 ft | 312 kts | 280° |
| 2026-05-06 06:37 | 48.36603 | 16.33912 | 28636 ft | 312 kts | 280° |
| 2026-05-06 06:38 | 48.37111 | 16.30751 | 29155 ft | 310 kts | 280° |
| 2026-05-06 06:38 | 48.37615 | 16.27614 | 29677 ft | 307 kts | 280° |
| 2026-05-06 06:38 | 48.38107 | 16.24539 | 30131 ft | 306 kts | 280° |
| 2026-05-06 06:38 | 48.38604 | 16.21426 | 30541 ft | 306 kts | 280° |
| 2026-05-06 06:39 | 48.39100 | 16.18311 | 30968 ft | 305 kts | 280° |
| 2026-05-06 06:39 | 48.39592 | 16.15220 | 31396 ft | 303 kts | 280° |
| 2026-05-06 06:39 | 48.40080 | 16.12144 | 31790 ft | 302 kts | 280° |
| 2026-05-06 06:39 | 48.40568 | 16.09073 | 32140 ft | 301 kts | 280° |
| 2026-05-06 06:40 | 48.41058 | 16.05978 | 32504 ft | 300 kts | 280° |
| 2026-05-06 06:40 | 48.41540 | 16.02922 | 32823 ft | 301 kts | 280° |
| 2026-05-06 06:40 | 48.42054 | 15.99769 | 32605 ft | 320 kts | 281° |
| 2026-05-06 06:40 | 48.42627 | 15.96540 | 32579 ft | 332 kts | 282° |
| 2026-05-06 06:41 | 48.43259 | 15.93068 | 32684 ft | 340 kts | 282° |
| 2026-05-06 06:41 | 48.44529 | 15.86076 | 32842 ft | 357 kts | 282° |
| 2026-05-06 06:42 | 48.45855 | 15.78687 | 32977 ft | 374 kts | 282° |
| 2026-05-06 06:42 | 48.47231 | 15.70962 | 33133 ft | 389 kts | 282° |
| 2026-05-06 06:43 | 48.48653 | 15.62931 | 33255 ft | 404 kts | 282° |
| 2026-05-06 06:43 | 48.50122 | 15.54604 | 33376 ft | 417 kts | 282° |
| 2026-05-06 06:44 | 48.51631 | 15.46012 | 33539 ft | 428 kts | 282° |
| 2026-05-06 06:44 | 48.52377 | 15.41661 | 33762 ft | 428 kts | 281° |
| 2026-05-06 06:44 | 48.53052 | 15.37303 | 34139 ft | 425 kts | 279° |
| 2026-05-06 06:44 | 48.53686 | 15.32960 | 34498 ft | 423 kts | 279° |
| 2026-05-06 06:45 | 48.54306 | 15.28615 | 34739 ft | 424 kts | 279° |
| 2026-05-06 06:45 | 48.54928 | 15.24252 | 34906 ft | 426 kts | 279° |
| 2026-05-06 06:45 | 48.55555 | 15.19882 | 35157 ft | 426 kts | 278° |
| 2026-05-06 06:45 | 48.56183 | 15.15532 | 35448 ft | 425 kts | 278° |
| 2026-05-06 06:46 | 48.56814 | 15.11175 | 35691 ft | 424 kts | 278° |
| 2026-05-06 06:46 | 48.57444 | 15.06834 | 35912 ft | 425 kts | 278° |
| 2026-05-06 06:46 | 48.58077 | 15.02464 | 36113 ft | 425 kts | 278° |
| 2026-05-06 06:46 | 48.58708 | 14.98096 | 36324 ft | 426 kts | 278° |
| 2026-05-06 06:47 | 48.59336 | 14.93731 | 36518 ft | 426 kts | 278° |
| 2026-05-06 06:47 | 48.59966 | 14.89350 | 36734 ft | 426 kts | 278° |
| 2026-05-06 06:47 | 48.60591 | 14.84994 | 37012 ft | 424 kts | 278° |
| 2026-05-06 06:47 | 48.61205 | 14.80702 | 37315 ft | 421 kts | 278° |
| 2026-05-06 06:48 | 48.61829 | 14.76332 | 37622 ft | 419 kts | 278° |
| 2026-05-06 06:48 | 48.62432 | 14.72090 | 37800 ft | 419 kts | 277° |
| 2026-05-06 06:48 | 48.63050 | 14.67716 | 37852 ft | 422 kts | 277° |
| 2026-05-06 06:49 | 48.64267 | 14.59077 | 37856 ft | 422 kts | 277° |
| 2026-05-06 06:49 | 48.65482 | 14.50420 | 37861 ft | 420 kts | 277° |
| 2026-05-06 06:50 | 48.66683 | 14.41810 | 37847 ft | 417 kts | 277° |
| 2026-05-06 06:50 | 48.67871 | 14.33240 | 37846 ft | 415 kts | 277° |
| 2026-05-06 06:51 | 48.69052 | 14.24662 | 37852 ft | 414 kts | 277° |
| 2026-05-06 06:51 | 48.70211 | 14.16196 | 37855 ft | 414 kts | 277° |
| 2026-05-06 06:52 | 48.71372 | 14.07652 | 37854 ft | 415 kts | 277° |
| 2026-05-06 06:52 | 48.72533 | 13.99077 | 37852 ft | 417 kts | 277° |
| 2026-05-06 06:53 | 48.73694 | 13.90451 | 37855 ft | 418 kts | 277° |
| 2026-05-06 06:53 | 48.74853 | 13.81795 | 37856 ft | 421 kts | 277° |
| 2026-05-06 06:54 | 48.76057 | 13.73094 | 37839 ft | 425 kts | 281° |
| 2026-05-06 06:54 | 48.78399 | 13.64766 | 37853 ft | 435 kts | 293° |
| 2026-05-06 06:55 | 48.81356 | 13.56721 | 37844 ft | 437 kts | 294° |
| 2026-05-06 06:55 | 48.84317 | 13.48670 | 37841 ft | 437 kts | 294° |
| 2026-05-06 06:56 | 48.87242 | 13.40598 | 37843 ft | 436 kts | 293° |
| 2026-05-06 06:56 | 48.90149 | 13.32492 | 37842 ft | 436 kts | 293° |
| 2026-05-06 06:57 | 48.93045 | 13.24393 | 37841 ft | 436 kts | 293° |
| 2026-05-06 06:57 | 48.95936 | 13.16276 | 37837 ft | 435 kts | 293° |
| 2026-05-06 06:58 | 48.98807 | 13.08189 | 37828 ft | 435 kts | 293° |
| 2026-05-06 06:58 | 49.01668 | 13.00108 | 37833 ft | 433 kts | 293° |
| 2026-05-06 06:59 | 49.04522 | 12.92022 | 37829 ft | 433 kts | 293° |
| 2026-05-06 06:59 | 49.07364 | 12.83944 | 37833 ft | 432 kts | 292° |
| 2026-05-06 07:00 | 49.10203 | 12.75849 | 37834 ft | 432 kts | 292° |
| 2026-05-06 07:00 | 49.13038 | 12.67739 | 37831 ft | 433 kts | 293° |
| 2026-05-06 07:01 | 49.15860 | 12.59641 | 37830 ft | 433 kts | 292° |
| 2026-05-06 07:01 | 49.18685 | 12.51509 | 37836 ft | 434 kts | 292° |
| 2026-05-06 07:02 | 49.21516 | 12.43337 | 37834 ft | 434 kts | 292° |
| 2026-05-06 07:02 | 49.24336 | 12.35167 | 37834 ft | 435 kts | 292° |
| 2026-05-06 07:03 | 49.27162 | 12.26953 | 37830 ft | 436 kts | 292° |
| 2026-05-06 07:03 | 49.29986 | 12.18721 | 37829 ft | 437 kts | 292° |
| 2026-05-06 07:04 | 49.32809 | 12.10463 | 37825 ft | 438 kts | 292° |
| 2026-05-06 07:04 | 49.35632 | 12.02181 | 37826 ft | 438 kts | 292° |
| 2026-05-06 07:05 | 49.38453 | 11.93878 | 37815 ft | 439 kts | 292° |
| 2026-05-06 07:05 | 49.41265 | 11.85573 | 37823 ft | 439 kts | 292° |
| 2026-05-06 07:06 | 49.44076 | 11.77246 | 37821 ft | 438 kts | 292° |
| 2026-05-06 07:06 | 49.46878 | 11.68917 | 37812 ft | 438 kts | 292° |
| 2026-05-06 07:07 | 49.49670 | 11.60590 | 37819 ft | 438 kts | 292° |
| 2026-05-06 07:07 | 49.51978 | 11.53682 | 37817 ft | 438 kts | 292° |
| 2026-05-06 07:08 | 49.54764 | 11.45328 | 37811 ft | 438 kts | 292° |
| 2026-05-06 07:08 | 49.57568 | 11.36993 | 37800 ft | 439 kts | 294° |
| 2026-05-06 07:09 | 49.60519 | 11.28755 | 37809 ft | 440 kts | 294° |
| 2026-05-06 07:09 | 49.63500 | 11.20510 | 37807 ft | 440 kts | 294° |
| 2026-05-06 07:10 | 49.66455 | 11.12252 | 37802 ft | 439 kts | 294° |
| 2026-05-06 07:10 | 49.69387 | 11.03992 | 37802 ft | 439 kts | 294° |
| 2026-05-06 07:11 | 49.72314 | 10.95707 | 37804 ft | 439 kts | 294° |
| 2026-05-06 07:11 | 49.75234 | 10.87410 | 37806 ft | 439 kts | 294° |
| 2026-05-06 07:12 | 49.78153 | 10.79093 | 37810 ft | 439 kts | 294° |
| 2026-05-06 07:12 | 49.81059 | 10.70787 | 37803 ft | 440 kts | 294° |
| 2026-05-06 07:13 | 49.83967 | 10.62447 | 37796 ft | 441 kts | 294° |
| 2026-05-06 07:13 | 49.86882 | 10.54064 | 37799 ft | 441 kts | 294° |
| 2026-05-06 07:14 | 49.89793 | 10.45661 | 37799 ft | 442 kts | 294° |
| 2026-05-06 07:14 | 49.92700 | 10.37241 | 37800 ft | 443 kts | 294° |
| 2026-05-06 07:15 | 49.95610 | 10.28787 | 37788 ft | 444 kts | 294° |
| 2026-05-06 07:15 | 49.98515 | 10.20319 | 37786 ft | 445 kts | 294° |
| 2026-05-06 07:16 | 50.01420 | 10.11822 | 37787 ft | 445 kts | 294° |
| 2026-05-06 07:16 | 50.04325 | 10.03297 | 37786 ft | 446 kts | 294° |
| 2026-05-06 07:17 | 50.07205 | 9.94815 | 37787 ft | 446 kts | 294° |
| 2026-05-06 07:17 | 50.10092 | 9.86281 | 37784 ft | 446 kts | 293° |
| 2026-05-06 07:18 | 50.12999 | 9.77666 | 37788 ft | 446 kts | 294° |
| 2026-05-06 07:18 | 50.15877 | 9.69108 | 37773 ft | 445 kts | 293° |
| 2026-05-06 07:19 | 50.18727 | 9.60600 | 37770 ft | 445 kts | 294° |
| 2026-05-06 07:19 | 50.21587 | 9.52036 | 37773 ft | 445 kts | 294° |
| 2026-05-06 07:20 | 50.24444 | 9.43452 | 37768 ft | 445 kts | 294° |
| 2026-05-06 07:20 | 50.27289 | 9.34870 | 37767 ft | 445 kts | 294° |
| 2026-05-06 07:21 | 50.30128 | 9.26278 | 37758 ft | 445 kts | 293° |
| 2026-05-06 07:21 | 50.32965 | 9.17672 | 37770 ft | 445 kts | 294° |
| 2026-05-06 07:22 | 50.35370 | 9.08814 | 37777 ft | 441 kts | 284° |
| 2026-05-06 07:22 | 50.37144 | 8.99634 | 37774 ft | 441 kts | 283° |
| 2026-05-06 07:23 | 50.38913 | 8.90424 | 37767 ft | 442 kts | 284° |
| 2026-05-06 07:23 | 50.40724 | 8.81187 | 37769 ft | 443 kts | 284° |
| 2026-05-06 07:24 | 50.42555 | 8.71868 | 37772 ft | 445 kts | 284° |
| 2026-05-06 07:24 | 50.44348 | 8.62658 | 37763 ft | 445 kts | 283° |
| 2026-05-06 07:25 | 50.45401 | 8.53080 | 37760 ft | 441 kts | 271° |
| 2026-05-06 07:25 | 50.45710 | 8.43542 | 37761 ft | 441 kts | 269° |
| 2026-05-06 07:26 | 50.45937 | 8.33926 | 37774 ft | 441 kts | 269° |
| 2026-05-06 07:26 | 50.46194 | 8.24299 | 37764 ft | 442 kts | 270° |
| 2026-05-06 07:27 | 50.46474 | 8.14652 | 37761 ft | 443 kts | 270° |
| 2026-05-06 07:27 | 50.46757 | 8.04986 | 37758 ft | 443 kts | 270° |
| 2026-05-06 07:28 | 50.47032 | 7.95344 | 37761 ft | 442 kts | 270° |
| 2026-05-06 07:28 | 50.47426 | 7.80910 | 37760 ft | 441 kts | 270° |
| 2026-05-06 07:29 | 50.47680 | 7.71278 | 37761 ft | 440 kts | 270° |
| 2026-05-06 07:29 | 50.47803 | 7.66475 | 37621 ft | 443 kts | 270° |
| 2026-05-06 07:29 | 50.47925 | 7.61632 | 37113 ft | 445 kts | 270° |
| 2026-05-06 07:30 | 50.48046 | 7.56782 | 36506 ft | 443 kts | 270° |
| 2026-05-06 07:30 | 50.48164 | 7.51967 | 35907 ft | 442 kts | 270° |
| 2026-05-06 07:30 | 50.48280 | 7.47148 | 35237 ft | 442 kts | 269° |
| 2026-05-06 07:30 | 50.48394 | 7.42311 | 34530 ft | 444 kts | 269° |
| 2026-05-06 07:31 | 50.48506 | 7.37461 | 33821 ft | 445 kts | 269° |
| 2026-05-06 07:31 | 50.48616 | 7.32606 | 33098 ft | 446 kts | 269° |
| 2026-05-06 07:31 | 50.48723 | 7.27728 | 32341 ft | 448 kts | 269° |
| 2026-05-06 07:31 | 50.48830 | 7.22832 | 31571 ft | 449 kts | 269° |
| 2026-05-06 07:32 | 50.48936 | 7.17926 | 30771 ft | 451 kts | 269° |
| 2026-05-06 07:32 | 50.49041 | 7.13000 | 29946 ft | 452 kts | 269° |
| 2026-05-06 07:32 | 50.49142 | 7.08134 | 29291 ft | 450 kts | 269° |
| 2026-05-06 07:32 | 50.49244 | 7.03187 | 28674 ft | 445 kts | 269° |
| 2026-05-06 07:33 | 50.49340 | 6.98413 | 28074 ft | 441 kts | 269° |
| 2026-05-06 07:33 | 50.49434 | 6.93625 | 27457 ft | 436 kts | 269° |
| 2026-05-06 07:33 | 50.49524 | 6.88891 | 26877 ft | 432 kts | 269° |
| 2026-05-06 07:33 | 50.49612 | 6.84206 | 26286 ft | 427 kts | 269° |
| 2026-05-06 07:34 | 50.49696 | 6.79559 | 25692 ft | 423 kts | 269° |
| 2026-05-06 07:34 | 50.49777 | 6.74973 | 25114 ft | 419 kts | 269° |
| 2026-05-06 07:34 | 50.49856 | 6.70421 | 24544 ft | 414 kts | 269° |
| 2026-05-06 07:34 | 50.49933 | 6.65929 | 23975 ft | 410 kts | 269° |
| 2026-05-06 07:35 | 50.50007 | 6.61485 | 23411 ft | 405 kts | 269° |
| 2026-05-06 07:35 | 50.50078 | 6.57075 | 22846 ft | 401 kts | 269° |
| 2026-05-06 07:35 | 50.50148 | 6.52672 | 22286 ft | 397 kts | 269° |
| 2026-05-06 07:35 | 50.50215 | 6.48417 | 21743 ft | 393 kts | 269° |
| 2026-05-06 07:36 | 50.50280 | 6.44156 | 21194 ft | 389 kts | 269° |
| 2026-05-06 07:36 | 50.50342 | 6.39935 | 20652 ft | 385 kts | 269° |
| 2026-05-06 07:36 | 50.50402 | 6.35743 | 20100 ft | 382 kts | 269° |
| 2026-05-06 07:36 | 50.50460 | 6.31577 | 19570 ft | 379 kts | 269° |
| 2026-05-06 07:37 | 50.50516 | 6.27468 | 19032 ft | 376 kts | 269° |
| 2026-05-06 07:37 | 50.50571 | 6.23372 | 18502 ft | 373 kts | 269° |
| 2026-05-06 07:37 | 50.50624 | 6.19305 | 17971 ft | 370 kts | 269° |
| 2026-05-06 07:37 | 50.50675 | 6.15278 | 17445 ft | 367 kts | 269° |
| 2026-05-06 07:38 | 50.50724 | 6.11293 | 16927 ft | 365 kts | 269° |
| 2026-05-06 07:38 | 50.50772 | 6.07324 | 16408 ft | 362 kts | 269° |
| 2026-05-06 07:38 | 50.50818 | 6.03372 | 15891 ft | 360 kts | 269° |
| 2026-05-06 07:38 | 50.50863 | 5.99466 | 15373 ft | 357 kts | 269° |
| 2026-05-06 07:39 | 50.50906 | 5.95575 | 14861 ft | 354 kts | 269° |
| 2026-05-06 07:39 | 50.50945 | 5.91726 | 14362 ft | 352 kts | 269° |
| 2026-05-06 07:39 | 50.50982 | 5.87902 | 13850 ft | 350 kts | 269° |
| 2026-05-06 07:39 | 50.51021 | 5.84083 | 13351 ft | 347 kts | 269° |
| 2026-05-06 07:40 | 50.51058 | 5.80304 | 12845 ft | 345 kts | 269° |
| 2026-05-06 07:40 | 50.51093 | 5.76547 | 12358 ft | 343 kts | 269° |
| 2026-05-06 07:40 | 50.51127 | 5.72808 | 11863 ft | 341 kts | 269° |
| 2026-05-06 07:40 | 50.51159 | 5.69101 | 11366 ft | 339 kts | 269° |
| 2026-05-06 07:41 | 50.51190 | 5.65406 | 10872 ft | 337 kts | 269° |
| 2026-05-06 07:41 | 50.51220 | 5.61751 | 10637 ft | 328 kts | 270° |
| 2026-05-06 07:41 | 50.51248 | 5.58230 | 10477 ft | 317 kts | 270° |
| 2026-05-06 07:41 | 50.51274 | 5.54834 | 10331 ft | 306 kts | 269° |
| 2026-05-06 07:42 | 50.51298 | 5.51539 | 10200 ft | 296 kts | 270° |
| 2026-05-06 07:42 | 50.51320 | 5.48360 | 10087 ft | 287 kts | 270° |
| 2026-05-06 07:42 | 50.51340 | 5.45279 | 9957 ft | 278 kts | 270° |
| 2026-05-06 07:42 | 50.51359 | 5.42292 | 9841 ft | 269 kts | 270° |
| 2026-05-06 07:43 | 50.51377 | 5.39419 | 9606 ft | 266 kts | 270° |
| 2026-05-06 07:43 | 50.51393 | 5.36529 | 9355 ft | 263 kts | 270° |
| 2026-05-06 07:43 | 50.51409 | 5.33664 | 9072 ft | 262 kts | 270° |
| 2026-05-06 07:43 | 50.51424 | 5.30802 | 8791 ft | 261 kts | 270° |
| 2026-05-06 07:44 | 50.51439 | 5.27959 | 8509 ft | 260 kts | 270° |
| 2026-05-06 07:44 | 50.51452 | 5.25120 | 8224 ft | 259 kts | 270° |
| 2026-05-06 07:44 | 50.51466 | 5.22246 | 7936 ft | 259 kts | 270° |
| 2026-05-06 07:44 | 50.51478 | 5.19456 | 7655 ft | 259 kts | 270° |
| 2026-05-06 07:45 | 50.51491 | 5.16620 | 7371 ft | 259 kts | 270° |
| 2026-05-06 07:45 | 50.51501 | 5.13794 | 7077 ft | 259 kts | 271° |
| 2026-05-06 07:45 | 50.51511 | 5.10975 | 6800 ft | 259 kts | 271° |
| 2026-05-06 07:45 | 50.51523 | 5.08146 | 6509 ft | 259 kts | 271° |
| 2026-05-06 07:46 | 50.51533 | 5.05315 | 6232 ft | 259 kts | 271° |
| 2026-05-06 07:46 | 50.51540 | 5.02478 | 5938 ft | 259 kts | 271° |
| 2026-05-06 07:46 | 50.51546 | 4.99649 | 5675 ft | 260 kts | 271° |
| 2026-05-06 07:46 | 50.51552 | 4.96798 | 5371 ft | 262 kts | 271° |
| 2026-05-06 07:47 | 50.51559 | 4.93933 | 5067 ft | 263 kts | 271° |
| 2026-05-06 07:47 | 50.51567 | 4.91056 | 4790 ft | 264 kts | 272° |
| 2026-05-06 07:47 | 50.51573 | 4.88171 | 4485 ft | 265 kts | 271° |
| 2026-05-06 07:47 | 50.51576 | 4.85283 | 4221 ft | 264 kts | 271° |
| 2026-05-06 07:48 | 50.51578 | 4.82397 | 3912 ft | 265 kts | 272° |
| 2026-05-06 07:48 | 50.51583 | 4.79505 | 3639 ft | 266 kts | 272° |
| 2026-05-06 07:48 | 50.51587 | 4.76594 | 3360 ft | 266 kts | 272° |
| 2026-05-06 07:48 | 50.51587 | 4.73702 | 3162 ft | 262 kts | 272° |
| 2026-05-06 07:49 | 50.51583 | 4.70878 | 3047 ft | 255 kts | 272° |
| 2026-05-06 07:49 | 50.51578 | 4.68141 | 2954 ft | 247 kts | 271° |
| 2026-05-06 07:49 | 50.51563 | 4.65478 | 2897 ft | 240 kts | 273° |
| 2026-05-06 07:49 | 50.51756 | 4.62920 | 2823 ft | 232 kts | 293° |
| 2026-05-06 07:50 | 50.52644 | 4.60925 | 2837 ft | 218 kts | 323° |
| 2026-05-06 07:50 | 50.53936 | 4.59778 | 2831 ft | 217 kts | 345° |
| 2026-05-06 07:50 | 50.55423 | 4.59600 | 2836 ft | 216 kts | 9° |
| 2026-05-06 07:50 | 50.56815 | 4.60389 | 2871 ft | 213 kts | 30° |
| 2026-05-06 07:51 | 50.57900 | 4.61939 | 2855 ft | 212 kts | 51° |
| 2026-05-06 07:51 | 50.58643 | 4.63973 | 2839 ft | 214 kts | 62° |
| 2026-05-06 07:51 | 50.59285 | 4.66059 | 2823 ft | 208 kts | 63° |
| 2026-05-06 07:51 | 50.59903 | 4.68117 | 2851 ft | 208 kts | 63° |
| 2026-05-06 07:52 | 50.60513 | 4.70223 | 2826 ft | 213 kts | 72° |
| 2026-05-06 07:52 | 50.60609 | 4.72535 | 2838 ft | 214 kts | 97° |
| 2026-05-06 07:52 | 50.60345 | 4.74035 | 2796 ft | 219 kts | 112° |
| 2026-05-06 07:52 | 50.59413 | 4.75915 | 2803 ft | 221 kts | 141° |
| 2026-05-06 07:53 | 50.58006 | 4.76910 | 2756 ft | 228 kts | 169° |
| 2026-05-06 07:53 | 50.55992 | 4.76413 | 2863 ft | 228 kts | 208° |
| 2026-05-06 07:53 | 50.54785 | 4.74814 | 2862 ft | 228 kts | 236° |
| 2026-05-06 07:53 | 50.54047 | 4.72589 | 2841 ft | 231 kts | 245° |
| 2026-05-06 07:54 | 50.53565 | 4.71052 | 2873 ft | 235 kts | 245° |
| 2026-05-06 07:54 | 50.52846 | 4.68759 | 2814 ft | 230 kts | 247° |
| 2026-05-06 07:54 | 50.52150 | 4.66530 | 2811 ft | 226 kts | 246° |
| 2026-05-06 07:54 | 50.51498 | 4.64335 | 2832 ft | 219 kts | 254° |
| 2026-05-06 07:55 | 50.51534 | 4.61296 | 2835 ft | 212 kts | 296° |
| 2026-05-06 07:55 | 50.52059 | 4.59983 | 2844 ft | 211 kts | 316° |
| 2026-05-06 07:55 | 50.53287 | 4.58760 | 2857 ft | 212 kts | 346° |
| 2026-05-06 07:55 | 50.54763 | 4.58708 | 2741 ft | 221 kts | 16° |
| 2026-05-06 07:56 | 50.56048 | 4.59899 | 2804 ft | 215 kts | 46° |
| 2026-05-06 07:56 | 50.56857 | 4.61862 | 2834 ft | 213 kts | 62° |
| 2026-05-06 07:56 | 50.57497 | 4.63940 | 2872 ft | 210 kts | 60° |
| 2026-05-06 07:56 | 50.58143 | 4.66034 | 2868 ft | 212 kts | 61° |
| 2026-05-06 07:57 | 50.58780 | 4.68105 | 2823 ft | 211 kts | 62° |
| 2026-05-06 07:57 | 50.59386 | 4.70178 | 2835 ft | 207 kts | 71° |
| 2026-05-06 07:57 | 50.59463 | 4.72421 | 2836 ft | 209 kts | 102° |
| 2026-05-06 07:57 | 50.58768 | 4.74457 | 2874 ft | 220 kts | 131° |
| 2026-05-06 07:58 | 50.57456 | 4.75723 | 2849 ft | 225 kts | 164° |
| 2026-05-06 07:58 | 50.55869 | 4.75756 | 2784 ft | 237 kts | 198° |
| 2026-05-06 07:58 | 50.54581 | 4.74298 | 2858 ft | 229 kts | 236° |
| 2026-05-06 07:58 | 50.53858 | 4.72098 | 2896 ft | 228 kts | 246° |
| 2026-05-06 07:59 | 50.53171 | 4.69818 | 2846 ft | 231 kts | 245° |
| 2026-05-06 07:59 | 50.52488 | 4.67574 | 2889 ft | 223 kts | 246° |
| 2026-05-06 07:59 | 50.51871 | 4.65438 | 2892 ft | 204 kts | 248° |
| 2026-05-06 07:59 | 50.51305 | 4.63501 | 2780 ft | 192 kts | 248° |
| 2026-05-06 08:00 | 50.50778 | 4.61611 | 2624 ft | 186 kts | 249° |
| 2026-05-06 08:00 | 50.50229 | 4.59773 | 2387 ft | 182 kts | 246° |
| 2026-05-06 08:00 | 50.49703 | 4.57999 | 2121 ft | 174 kts | 248° |
| 2026-05-06 08:00 | 50.49195 | 4.56269 | 1867 ft | 174 kts | 248° |
| 2026-05-06 08:01 | 50.48699 | 4.54565 | 1634 ft | 171 kts | 248° |
| 2026-05-06 08:01 | 50.48209 | 4.52893 | 1416 ft | 166 kts | 248° |
| 2026-05-06 08:01 | 50.47726 | 4.51237 | 1203 ft | 169 kts | 248° |
| 2026-05-06 08:01 | 50.47237 | 4.49569 | 984 ft | 167 kts | 248° |
| 2026-05-06 08:02 | 50.46754 | 4.47916 | 755 ft | 166 kts | 247° |
| 2026-05-06 08:02 | 50.46281 | 4.46288 | 583 ft | 160 kts | 246° |
| 2026-05-06 08:02 | 50.46000 | 4.45190 | 596 ft | 52 kts | 249° |
| 2026-05-06 08:02 | 50.45968 | 4.45056 | 599 ft | 0 kts | 250° |